<?xml version="1.0" encoding="UTF-8" standalone="no" ?>
<gpx xmlns="http://www.topografix.com/GPX/1/1" xmlns:xsi="http://www.w3.org/2001/XMLSchema-instance" xsi:schemaLocation="http://www.topografix.com/GPX/1/1 http://www.topografix.com/GPX/1/1/gpx.xsd" version="1.1" creator="VisuGPX - https://www.visugpx.com">
  <metadata>
    <name>BRUEIL EN VEXIN</name>
    <desc><![CDATA[FAIT]]></desc>
  </metadata>
  <trk>
    <name><![CDATA[BRUEIL EN VEXIN-13104979]]></name>
    <trkseg>
      <trkpt lat="49.03488" lon="1.86449">
        <ele>39</ele>
        <time>2023-01-08T18:51:15Z</time>
      </trkpt>
      <trkpt lat="49.03487" lon="1.86452">
        <ele>39</ele>
        <time>2023-01-08T18:51:18Z</time>
      </trkpt>
      <trkpt lat="49.03485" lon="1.8645">
        <ele>39</ele>
        <time>2023-01-08T18:51:21Z</time>
      </trkpt>
      <trkpt lat="49.03495" lon="1.86466">
        <ele>38</ele>
        <time>2023-01-08T18:51:40Z</time>
      </trkpt>
      <trkpt lat="49.03495" lon="1.86513">
        <ele>38</ele>
        <time>2023-01-08T18:52:22Z</time>
      </trkpt>
      <trkpt lat="49.0349" lon="1.86525">
        <ele>39</ele>
        <time>2023-01-08T18:52:34Z</time>
      </trkpt>
      <trkpt lat="49.03476" lon="1.86534">
        <ele>39</ele>
        <time>2023-01-08T18:52:54Z</time>
      </trkpt>
      <trkpt lat="49.03465" lon="1.86536">
        <ele>39</ele>
        <time>2023-01-08T18:53:09Z</time>
      </trkpt>
      <trkpt lat="49.03422" lon="1.86532">
        <ele>38</ele>
        <time>2023-01-08T18:54:07Z</time>
      </trkpt>
      <trkpt lat="49.03385" lon="1.86573">
        <ele>41</ele>
        <time>2023-01-08T18:55:08Z</time>
      </trkpt>
      <trkpt lat="49.03379" lon="1.86592">
        <ele>41</ele>
        <time>2023-01-08T18:55:26Z</time>
      </trkpt>
      <trkpt lat="49.03352" lon="1.8661">
        <ele>42</ele>
        <time>2023-01-08T18:56:05Z</time>
      </trkpt>
      <trkpt lat="49.03334" lon="1.86643">
        <ele>41</ele>
        <time>2023-01-08T18:56:43Z</time>
      </trkpt>
      <trkpt lat="49.03317" lon="1.86659">
        <ele>41</ele>
        <time>2023-01-08T18:57:10Z</time>
      </trkpt>
      <trkpt lat="49.03289" lon="1.86674">
        <ele>41</ele>
        <time>2023-01-08T18:57:49Z</time>
      </trkpt>
      <trkpt lat="49.03248" lon="1.86708">
        <ele>40</ele>
        <time>2023-01-08T18:58:51Z</time>
      </trkpt>
      <trkpt lat="49.03222" lon="1.86753">
        <ele>39</ele>
        <time>2023-01-08T18:59:44Z</time>
      </trkpt>
      <trkpt lat="49.03228" lon="1.86775">
        <ele>40</ele>
        <time>2023-01-08T19:00:05Z</time>
      </trkpt>
      <trkpt lat="49.03217" lon="1.86838">
        <ele>43</ele>
        <time>2023-01-08T19:01:02Z</time>
      </trkpt>
      <trkpt lat="49.03224" lon="1.8686">
        <ele>45</ele>
        <time>2023-01-08T19:01:23Z</time>
      </trkpt>
      <trkpt lat="49.03224" lon="1.86886">
        <ele>47</ele>
        <time>2023-01-08T19:01:46Z</time>
      </trkpt>
      <trkpt lat="49.03205" lon="1.86984">
        <ele>50</ele>
        <time>2023-01-08T19:03:15Z</time>
      </trkpt>
      <trkpt lat="49.03199" lon="1.87037">
        <ele>51</ele>
        <time>2023-01-08T19:04:02Z</time>
      </trkpt>
      <trkpt lat="49.03199" lon="1.87077">
        <ele>52</ele>
        <time>2023-01-08T19:04:37Z</time>
      </trkpt>
      <trkpt lat="49.03192" lon="1.87104">
        <ele>52</ele>
        <time>2023-01-08T19:05:03Z</time>
      </trkpt>
      <trkpt lat="49.0319" lon="1.87133">
        <ele>53</ele>
        <time>2023-01-08T19:05:28Z</time>
      </trkpt>
      <trkpt lat="49.03204" lon="1.87173">
        <ele>58</ele>
        <time>2023-01-08T19:06:08Z</time>
      </trkpt>
      <trkpt lat="49.03206" lon="1.87218">
        <ele>60</ele>
        <time>2023-01-08T19:06:48Z</time>
      </trkpt>
      <trkpt lat="49.03216" lon="1.8725">
        <ele>63</ele>
        <time>2023-01-08T19:07:19Z</time>
      </trkpt>
      <trkpt lat="49.03224" lon="1.87371">
        <ele>66</ele>
        <time>2023-01-08T19:09:05Z</time>
      </trkpt>
      <trkpt lat="49.03228" lon="1.87383">
        <ele>67</ele>
        <time>2023-01-08T19:09:17Z</time>
      </trkpt>
      <trkpt lat="49.03236" lon="1.87389">
        <ele>67</ele>
        <time>2023-01-08T19:09:29Z</time>
      </trkpt>
      <trkpt lat="49.03251" lon="1.87431">
        <ele>69</ele>
        <time>2023-01-08T19:10:10Z</time>
      </trkpt>
      <trkpt lat="49.03249" lon="1.87445">
        <ele>70</ele>
        <time>2023-01-08T19:10:23Z</time>
      </trkpt>
      <trkpt lat="49.03241" lon="1.87453">
        <ele>71</ele>
        <time>2023-01-08T19:10:36Z</time>
      </trkpt>
      <trkpt lat="49.03251" lon="1.87531">
        <ele>77</ele>
        <time>2023-01-08T19:11:45Z</time>
      </trkpt>
      <trkpt lat="49.03247" lon="1.87545">
        <ele>78</ele>
        <time>2023-01-08T19:11:59Z</time>
      </trkpt>
      <trkpt lat="49.03208" lon="1.87612">
        <ele>83</ele>
        <time>2023-01-08T19:13:17Z</time>
      </trkpt>
      <trkpt lat="49.03194" lon="1.87683">
        <ele>90</ele>
        <time>2023-01-08T19:14:22Z</time>
      </trkpt>
      <trkpt lat="49.03203" lon="1.87717">
        <ele>92</ele>
        <time>2023-01-08T19:14:54Z</time>
      </trkpt>
      <trkpt lat="49.03201" lon="1.87725">
        <ele>93</ele>
        <time>2023-01-08T19:15:01Z</time>
      </trkpt>
      <trkpt lat="49.03185" lon="1.87745">
        <ele>95</ele>
        <time>2023-01-08T19:15:29Z</time>
      </trkpt>
      <trkpt lat="49.03179" lon="1.87747">
        <ele>95</ele>
        <time>2023-01-08T19:15:37Z</time>
      </trkpt>
      <trkpt lat="49.03166" lon="1.87741">
        <ele>95</ele>
        <time>2023-01-08T19:15:55Z</time>
      </trkpt>
      <trkpt lat="49.03147" lon="1.87711">
        <ele>94</ele>
        <time>2023-01-08T19:16:32Z</time>
      </trkpt>
      <trkpt lat="49.03125" lon="1.87694">
        <ele>94</ele>
        <time>2023-01-08T19:17:05Z</time>
      </trkpt>
      <trkpt lat="49.03105" lon="1.87689">
        <ele>95</ele>
        <time>2023-01-08T19:17:32Z</time>
      </trkpt>
      <trkpt lat="49.03086" lon="1.87679">
        <ele>96</ele>
        <time>2023-01-08T19:17:59Z</time>
      </trkpt>
      <trkpt lat="49.03031" lon="1.87666">
        <ele>94</ele>
        <time>2023-01-08T19:19:13Z</time>
      </trkpt>
      <trkpt lat="49.02995" lon="1.87653">
        <ele>91</ele>
        <time>2023-01-08T19:20:02Z</time>
      </trkpt>
      <trkpt lat="49.02972" lon="1.87652">
        <ele>89</ele>
        <time>2023-01-08T19:20:33Z</time>
      </trkpt>
      <trkpt lat="49.02938" lon="1.87644">
        <ele>84</ele>
        <time>2023-01-08T19:21:19Z</time>
      </trkpt>
      <trkpt lat="49.02896" lon="1.87645">
        <ele>79</ele>
        <time>2023-01-08T19:22:15Z</time>
      </trkpt>
      <trkpt lat="49.0288" lon="1.87649">
        <ele>78</ele>
        <time>2023-01-08T19:22:37Z</time>
      </trkpt>
      <trkpt lat="49.02869" lon="1.87643">
        <ele>76</ele>
        <time>2023-01-08T19:22:52Z</time>
      </trkpt>
      <trkpt lat="49.02848" lon="1.87615">
        <ele>71</ele>
        <time>2023-01-08T19:23:29Z</time>
      </trkpt>
      <trkpt lat="49.02824" lon="1.87599">
        <ele>67</ele>
        <time>2023-01-08T19:24:04Z</time>
      </trkpt>
      <trkpt lat="49.02786" lon="1.87597">
        <ele>64</ele>
        <time>2023-01-08T19:24:55Z</time>
      </trkpt>
      <trkpt lat="49.02751" lon="1.87587">
        <ele>60</ele>
        <time>2023-01-08T19:25:43Z</time>
      </trkpt>
      <trkpt lat="49.02732" lon="1.87589">
        <ele>58</ele>
        <time>2023-01-08T19:26:08Z</time>
      </trkpt>
      <trkpt lat="49.02718" lon="1.87601">
        <ele>57</ele>
        <time>2023-01-08T19:26:29Z</time>
      </trkpt>
      <trkpt lat="49.02702" lon="1.87624">
        <ele>57</ele>
        <time>2023-01-08T19:26:59Z</time>
      </trkpt>
      <trkpt lat="49.02673" lon="1.87633">
        <ele>53</ele>
        <time>2023-01-08T19:27:38Z</time>
      </trkpt>
      <trkpt lat="49.02662" lon="1.87632">
        <ele>52</ele>
        <time>2023-01-08T19:27:53Z</time>
      </trkpt>
      <trkpt lat="49.02639" lon="1.87614">
        <ele>47</ele>
        <time>2023-01-08T19:28:28Z</time>
      </trkpt>
      <trkpt lat="49.02624" lon="1.87615">
        <ele>46</ele>
        <time>2023-01-08T19:28:48Z</time>
      </trkpt>
      <trkpt lat="49.02597" lon="1.87632">
        <ele>43</ele>
        <time>2023-01-08T19:29:27Z</time>
      </trkpt>
      <trkpt lat="49.02588" lon="1.87647">
        <ele>44</ele>
        <time>2023-01-08T19:29:44Z</time>
      </trkpt>
      <trkpt lat="49.02558" lon="1.87674">
        <ele>42</ele>
        <time>2023-01-08T19:30:31Z</time>
      </trkpt>
      <trkpt lat="49.02548" lon="1.87679">
        <ele>41</ele>
        <time>2023-01-08T19:30:45Z</time>
      </trkpt>
      <trkpt lat="49.02541" lon="1.87678">
        <ele>40</ele>
        <time>2023-01-08T19:30:54Z</time>
      </trkpt>
      <trkpt lat="49.02539" lon="1.87671">
        <ele>39</ele>
        <time>2023-01-08T19:31:01Z</time>
      </trkpt>
      <trkpt lat="49.02548" lon="1.8763">
        <ele>38</ele>
        <time>2023-01-08T19:31:39Z</time>
      </trkpt>
      <trkpt lat="49.02563" lon="1.87594">
        <ele>37</ele>
        <time>2023-01-08T19:32:16Z</time>
      </trkpt>
      <trkpt lat="49.02573" lon="1.8755">
        <ele>35</ele>
        <time>2023-01-08T19:32:57Z</time>
      </trkpt>
      <trkpt lat="49.02572" lon="1.87525">
        <ele>34</ele>
        <time>2023-01-08T19:33:19Z</time>
      </trkpt>
      <trkpt lat="49.02567" lon="1.87517">
        <ele>33</ele>
        <time>2023-01-08T19:33:28Z</time>
      </trkpt>
      <trkpt lat="49.0255" lon="1.87507">
        <ele>32</ele>
        <time>2023-01-08T19:33:53Z</time>
      </trkpt>
      <trkpt lat="49.02533" lon="1.87507">
        <ele>32</ele>
        <time>2023-01-08T19:34:15Z</time>
      </trkpt>
      <trkpt lat="49.02477" lon="1.87496">
        <ele>32</ele>
        <time>2023-01-08T19:35:31Z</time>
      </trkpt>
      <trkpt lat="49.024" lon="1.87429">
        <ele>35</ele>
        <time>2023-01-08T19:37:29Z</time>
      </trkpt>
      <trkpt lat="49.02394" lon="1.8745">
        <ele>35</ele>
        <time>2023-01-08T19:37:49Z</time>
      </trkpt>
      <trkpt lat="49.02386" lon="1.87455">
        <ele>36</ele>
        <time>2023-01-08T19:38:01Z</time>
      </trkpt>
      <trkpt lat="49.02374" lon="1.87453">
        <ele>37</ele>
        <time>2023-01-08T19:38:17Z</time>
      </trkpt>
      <trkpt lat="49.02355" lon="1.87442">
        <ele>38</ele>
        <time>2023-01-08T19:38:44Z</time>
      </trkpt>
      <trkpt lat="49.02302" lon="1.87429">
        <ele>43</ele>
        <time>2023-01-08T19:39:56Z</time>
      </trkpt>
      <trkpt lat="49.02266" lon="1.874">
        <ele>49</ele>
        <time>2023-01-08T19:40:50Z</time>
      </trkpt>
      <trkpt lat="49.02244" lon="1.87367">
        <ele>53</ele>
        <time>2023-01-08T19:41:31Z</time>
      </trkpt>
      <trkpt lat="49.0222" lon="1.87312">
        <ele>56</ele>
        <time>2023-01-08T19:42:29Z</time>
      </trkpt>
      <trkpt lat="49.0221" lon="1.87277">
        <ele>57</ele>
        <time>2023-01-08T19:43:02Z</time>
      </trkpt>
      <trkpt lat="49.02211" lon="1.87254">
        <ele>57</ele>
        <time>2023-01-08T19:43:22Z</time>
      </trkpt>
      <trkpt lat="49.02205" lon="1.87254">
        <ele>57</ele>
        <time>2023-01-08T19:43:30Z</time>
      </trkpt>
      <trkpt lat="49.0221" lon="1.87245">
        <ele>57</ele>
        <time>2023-01-08T19:43:41Z</time>
      </trkpt>
      <trkpt lat="49.02205" lon="1.87181">
        <ele>59</ele>
        <time>2023-01-08T19:44:37Z</time>
      </trkpt>
      <trkpt lat="49.02194" lon="1.8715">
        <ele>62</ele>
        <time>2023-01-08T19:45:08Z</time>
      </trkpt>
      <trkpt lat="49.02176" lon="1.87127">
        <ele>65</ele>
        <time>2023-01-08T19:45:39Z</time>
      </trkpt>
      <trkpt lat="49.02173" lon="1.87114">
        <ele>66</ele>
        <time>2023-01-08T19:45:51Z</time>
      </trkpt>
      <trkpt lat="49.02181" lon="1.8707">
        <ele>65</ele>
        <time>2023-01-08T19:46:31Z</time>
      </trkpt>
      <trkpt lat="49.02177" lon="1.87018">
        <ele>65</ele>
        <time>2023-01-08T19:47:17Z</time>
      </trkpt>
      <trkpt lat="49.02181" lon="1.86992">
        <ele>65</ele>
        <time>2023-01-08T19:47:41Z</time>
      </trkpt>
      <trkpt lat="49.02191" lon="1.87">
        <ele>63</ele>
        <time>2023-01-08T19:47:56Z</time>
      </trkpt>
      <trkpt lat="49.02201" lon="1.86996">
        <ele>61</ele>
        <time>2023-01-08T19:48:09Z</time>
      </trkpt>
      <trkpt lat="49.02208" lon="1.86977">
        <ele>60</ele>
        <time>2023-01-08T19:48:28Z</time>
      </trkpt>
      <trkpt lat="49.02221" lon="1.86959">
        <ele>58</ele>
        <time>2023-01-08T19:48:52Z</time>
      </trkpt>
      <trkpt lat="49.02229" lon="1.86901">
        <ele>55</ele>
        <time>2023-01-08T19:49:44Z</time>
      </trkpt>
      <trkpt lat="49.02228" lon="1.86883">
        <ele>55</ele>
        <time>2023-01-08T19:50:00Z</time>
      </trkpt>
      <trkpt lat="49.02216" lon="1.86918">
        <ele>58</ele>
        <time>2023-01-08T19:50:34Z</time>
      </trkpt>
      <trkpt lat="49.02217" lon="1.86955">
        <ele>58</ele>
        <time>2023-01-08T19:51:07Z</time>
      </trkpt>
      <trkpt lat="49.02211" lon="1.86973">
        <ele>59</ele>
        <time>2023-01-08T19:51:24Z</time>
      </trkpt>
      <trkpt lat="49.02203" lon="1.86982">
        <ele>61</ele>
        <time>2023-01-08T19:51:37Z</time>
      </trkpt>
      <trkpt lat="49.02185" lon="1.8699">
        <ele>64</ele>
        <time>2023-01-08T19:52:03Z</time>
      </trkpt>
      <trkpt lat="49.02177" lon="1.87">
        <ele>65</ele>
        <time>2023-01-08T19:52:16Z</time>
      </trkpt>
      <trkpt lat="49.02173" lon="1.87037">
        <ele>66</ele>
        <time>2023-01-08T19:52:49Z</time>
      </trkpt>
      <trkpt lat="49.02183" lon="1.87065">
        <ele>64</ele>
        <time>2023-01-08T19:53:17Z</time>
      </trkpt>
      <trkpt lat="49.02169" lon="1.87107">
        <ele>67</ele>
        <time>2023-01-08T19:53:58Z</time>
      </trkpt>
      <trkpt lat="49.0217" lon="1.87117">
        <ele>66</ele>
        <time>2023-01-08T19:54:07Z</time>
      </trkpt>
      <trkpt lat="49.02193" lon="1.87154">
        <ele>62</ele>
        <time>2023-01-08T19:54:52Z</time>
      </trkpt>
      <trkpt lat="49.02214" lon="1.87235">
        <ele>56</ele>
        <time>2023-01-08T19:56:08Z</time>
      </trkpt>
      <trkpt lat="49.02213" lon="1.87262">
        <ele>56</ele>
        <time>2023-01-08T19:56:32Z</time>
      </trkpt>
      <trkpt lat="49.02207" lon="1.87271">
        <ele>57</ele>
        <time>2023-01-08T19:56:43Z</time>
      </trkpt>
      <trkpt lat="49.02166" lon="1.87268">
        <ele>62</ele>
        <time>2023-01-08T19:57:38Z</time>
      </trkpt>
      <trkpt lat="49.02157" lon="1.87295">
        <ele>62</ele>
        <time>2023-01-08T19:58:04Z</time>
      </trkpt>
      <trkpt lat="49.02136" lon="1.87336">
        <ele>61</ele>
        <time>2023-01-08T19:58:50Z</time>
      </trkpt>
      <trkpt lat="49.02106" lon="1.87382">
        <ele>58</ele>
        <time>2023-01-08T19:59:46Z</time>
      </trkpt>
      <trkpt lat="49.02082" lon="1.87406">
        <ele>55</ele>
        <time>2023-01-08T20:00:25Z</time>
      </trkpt>
      <trkpt lat="49.0203" lon="1.87509">
        <ele>54</ele>
        <time>2023-01-08T20:02:18Z</time>
      </trkpt>
      <trkpt lat="49.0203" lon="1.87531">
        <ele>55</ele>
        <time>2023-01-08T20:02:38Z</time>
      </trkpt>
      <trkpt lat="49.02049" lon="1.87567">
        <ele>52</ele>
        <time>2023-01-08T20:03:18Z</time>
      </trkpt>
      <trkpt lat="49.02052" lon="1.87596">
        <ele>52</ele>
        <time>2023-01-08T20:03:44Z</time>
      </trkpt>
      <trkpt lat="49.02045" lon="1.87624">
        <ele>54</ele>
        <time>2023-01-08T20:04:10Z</time>
      </trkpt>
      <trkpt lat="49.02016" lon="1.8766">
        <ele>59</ele>
        <time>2023-01-08T20:05:00Z</time>
      </trkpt>
      <trkpt lat="49.01999" lon="1.87669">
        <ele>62</ele>
        <time>2023-01-08T20:05:24Z</time>
      </trkpt>
      <trkpt lat="49.01947" lon="1.87754">
        <ele>72</ele>
        <time>2023-01-08T20:07:06Z</time>
      </trkpt>
      <trkpt lat="49.01938" lon="1.87757">
        <ele>74</ele>
        <time>2023-01-08T20:07:18Z</time>
      </trkpt>
      <trkpt lat="49.01916" lon="1.87744">
        <ele>77</ele>
        <time>2023-01-08T20:07:50Z</time>
      </trkpt>
      <trkpt lat="49.01889" lon="1.87718">
        <ele>79</ele>
        <time>2023-01-08T20:08:32Z</time>
      </trkpt>
      <trkpt lat="49.01865" lon="1.87704">
        <ele>81</ele>
        <time>2023-01-08T20:09:06Z</time>
      </trkpt>
      <trkpt lat="49.01845" lon="1.87677">
        <ele>82</ele>
        <time>2023-01-08T20:09:42Z</time>
      </trkpt>
      <trkpt lat="49.01777" lon="1.87616">
        <ele>88</ele>
        <time>2023-01-08T20:11:27Z</time>
      </trkpt>
      <trkpt lat="49.01732" lon="1.87584">
        <ele>94</ele>
        <time>2023-01-08T20:12:34Z</time>
      </trkpt>
      <trkpt lat="49.01717" lon="1.87581">
        <ele>95</ele>
        <time>2023-01-08T20:12:54Z</time>
      </trkpt>
      <trkpt lat="49.0171" lon="1.87575">
        <ele>95</ele>
        <time>2023-01-08T20:13:05Z</time>
      </trkpt>
      <trkpt lat="49.017" lon="1.87579">
        <ele>96</ele>
        <time>2023-01-08T20:13:18Z</time>
      </trkpt>
      <trkpt lat="49.01684" lon="1.87596">
        <ele>97</ele>
        <time>2023-01-08T20:13:44Z</time>
      </trkpt>
      <trkpt lat="49.01659" lon="1.87608">
        <ele>98</ele>
        <time>2023-01-08T20:14:19Z</time>
      </trkpt>
      <trkpt lat="49.01629" lon="1.87647">
        <ele>98</ele>
        <time>2023-01-08T20:15:12Z</time>
      </trkpt>
      <trkpt lat="49.01617" lon="1.87653">
        <ele>98</ele>
        <time>2023-01-08T20:15:29Z</time>
      </trkpt>
      <trkpt lat="49.01583" lon="1.87694">
        <ele>98</ele>
        <time>2023-01-08T20:16:27Z</time>
      </trkpt>
      <trkpt lat="49.01567" lon="1.87728">
        <ele>99</ele>
        <time>2023-01-08T20:17:03Z</time>
      </trkpt>
      <trkpt lat="49.01524" lon="1.87783">
        <ele>101</ele>
        <time>2023-01-08T20:18:18Z</time>
      </trkpt>
      <trkpt lat="49.01525" lon="1.87776">
        <ele>101</ele>
        <time>2023-01-08T20:18:24Z</time>
      </trkpt>
      <trkpt lat="49.01514" lon="1.87768">
        <ele>101</ele>
        <time>2023-01-08T20:18:41Z</time>
      </trkpt>
      <trkpt lat="49.0151" lon="1.87754">
        <ele>102</ele>
        <time>2023-01-08T20:18:54Z</time>
      </trkpt>
      <trkpt lat="49.01506" lon="1.87544">
        <ele>103</ele>
        <time>2023-01-08T20:21:58Z</time>
      </trkpt>
      <trkpt lat="49.01509" lon="1.8749">
        <ele>103</ele>
        <time>2023-01-08T20:22:45Z</time>
      </trkpt>
      <trkpt lat="49.01505" lon="1.87471">
        <ele>103</ele>
        <time>2023-01-08T20:23:03Z</time>
      </trkpt>
      <trkpt lat="49.01494" lon="1.87463">
        <ele>104</ele>
        <time>2023-01-08T20:23:19Z</time>
      </trkpt>
      <trkpt lat="49.01472" lon="1.87471">
        <ele>104</ele>
        <time>2023-01-08T20:23:49Z</time>
      </trkpt>
      <trkpt lat="49.01396" lon="1.87475">
        <ele>105</ele>
        <time>2023-01-08T20:25:31Z</time>
      </trkpt>
      <trkpt lat="49.01397" lon="1.87463">
        <ele>105</ele>
        <time>2023-01-08T20:25:41Z</time>
      </trkpt>
      <trkpt lat="49.01402" lon="1.87441">
        <ele>105</ele>
        <time>2023-01-08T20:26:02Z</time>
      </trkpt>
      <trkpt lat="49.01427" lon="1.87379">
        <ele>105</ele>
        <time>2023-01-08T20:27:05Z</time>
      </trkpt>
      <trkpt lat="49.0151" lon="1.87116">
        <ele>106</ele>
        <time>2023-01-08T20:31:21Z</time>
      </trkpt>
      <trkpt lat="49.01544" lon="1.8691">
        <ele>107</ele>
        <time>2023-01-08T20:34:27Z</time>
      </trkpt>
      <trkpt lat="49.01556" lon="1.86852">
        <ele>107</ele>
        <time>2023-01-08T20:35:20Z</time>
      </trkpt>
      <trkpt lat="49.0158" lon="1.86769">
        <ele>108</ele>
        <time>2023-01-08T20:36:39Z</time>
      </trkpt>
      <trkpt lat="49.01631" lon="1.86674">
        <ele>105</ele>
        <time>2023-01-08T20:38:27Z</time>
      </trkpt>
      <trkpt lat="49.0165" lon="1.86657">
        <ele>103</ele>
        <time>2023-01-08T20:38:56Z</time>
      </trkpt>
      <trkpt lat="49.01681" lon="1.8661">
        <ele>100</ele>
        <time>2023-01-08T20:39:55Z</time>
      </trkpt>
      <trkpt lat="49.01733" lon="1.86508">
        <ele>99</ele>
        <time>2023-01-08T20:41:48Z</time>
      </trkpt>
      <trkpt lat="49.01743" lon="1.86471">
        <ele>98</ele>
        <time>2023-01-08T20:42:23Z</time>
      </trkpt>
      <trkpt lat="49.01744" lon="1.86423">
        <ele>95</ele>
        <time>2023-01-08T20:43:05Z</time>
      </trkpt>
      <trkpt lat="49.01765" lon="1.86327">
        <ele>88</ele>
        <time>2023-01-08T20:44:33Z</time>
      </trkpt>
      <trkpt lat="49.01766" lon="1.86288">
        <ele>86</ele>
        <time>2023-01-08T20:45:07Z</time>
      </trkpt>
      <trkpt lat="49.01758" lon="1.86233">
        <ele>82</ele>
        <time>2023-01-08T20:45:57Z</time>
      </trkpt>
      <trkpt lat="49.01744" lon="1.86195">
        <ele>81</ele>
        <time>2023-01-08T20:46:35Z</time>
      </trkpt>
      <trkpt lat="49.01729" lon="1.86192">
        <ele>82</ele>
        <time>2023-01-08T20:46:55Z</time>
      </trkpt>
      <trkpt lat="49.01722" lon="1.86182">
        <ele>82</ele>
        <time>2023-01-08T20:47:08Z</time>
      </trkpt>
      <trkpt lat="49.0171" lon="1.86182">
        <ele>84</ele>
        <time>2023-01-08T20:47:24Z</time>
      </trkpt>
      <trkpt lat="49.0168" lon="1.86165">
        <ele>85</ele>
        <time>2023-01-08T20:48:07Z</time>
      </trkpt>
      <trkpt lat="49.01647" lon="1.86162">
        <ele>90</ele>
        <time>2023-01-08T20:48:51Z</time>
      </trkpt>
      <trkpt lat="49.01638" lon="1.86157">
        <ele>91</ele>
        <time>2023-01-08T20:49:03Z</time>
      </trkpt>
      <trkpt lat="49.01629" lon="1.86159">
        <ele>92</ele>
        <time>2023-01-08T20:49:16Z</time>
      </trkpt>
      <trkpt lat="49.01617" lon="1.86152">
        <ele>93</ele>
        <time>2023-01-08T20:49:33Z</time>
      </trkpt>
      <trkpt lat="49.01559" lon="1.86152">
        <ele>100</ele>
        <time>2023-01-08T20:50:50Z</time>
      </trkpt>
      <trkpt lat="49.01549" lon="1.86147">
        <ele>100</ele>
        <time>2023-01-08T20:51:04Z</time>
      </trkpt>
      <trkpt lat="49.01534" lon="1.86151">
        <ele>101</ele>
        <time>2023-01-08T20:51:25Z</time>
      </trkpt>
      <trkpt lat="49.01532" lon="1.86148">
        <ele>101</ele>
        <time>2023-01-08T20:51:28Z</time>
      </trkpt>
      <trkpt lat="49.01522" lon="1.86149">
        <ele>102</ele>
        <time>2023-01-08T20:51:42Z</time>
      </trkpt>
      <trkpt lat="49.01511" lon="1.86141">
        <ele>102</ele>
        <time>2023-01-08T20:51:58Z</time>
      </trkpt>
      <trkpt lat="49.01471" lon="1.8615">
        <ele>106</ele>
        <time>2023-01-08T20:52:52Z</time>
      </trkpt>
      <trkpt lat="49.01458" lon="1.86148">
        <ele>108</ele>
        <time>2023-01-08T20:53:09Z</time>
      </trkpt>
      <trkpt lat="49.01461" lon="1.8614">
        <ele>107</ele>
        <time>2023-01-08T20:53:17Z</time>
      </trkpt>
      <trkpt lat="49.01456" lon="1.86144">
        <ele>108</ele>
        <time>2023-01-08T20:53:25Z</time>
      </trkpt>
      <trkpt lat="49.01447" lon="1.86143">
        <ele>109</ele>
        <time>2023-01-08T20:53:37Z</time>
      </trkpt>
      <trkpt lat="49.01403" lon="1.86128">
        <ele>115</ele>
        <time>2023-01-08T20:54:37Z</time>
      </trkpt>
      <trkpt lat="49.01405" lon="1.86072">
        <ele>115</ele>
        <time>2023-01-08T20:55:26Z</time>
      </trkpt>
      <trkpt lat="49.01393" lon="1.86039">
        <ele>118</ele>
        <time>2023-01-08T20:55:59Z</time>
      </trkpt>
      <trkpt lat="49.01396" lon="1.85974">
        <ele>118</ele>
        <time>2023-01-08T20:56:56Z</time>
      </trkpt>
      <trkpt lat="49.01384" lon="1.85924">
        <ele>119</ele>
        <time>2023-01-08T20:57:43Z</time>
      </trkpt>
      <trkpt lat="49.01403" lon="1.85857">
        <ele>119</ele>
        <time>2023-01-08T20:58:47Z</time>
      </trkpt>
      <trkpt lat="49.01372" lon="1.85884">
        <ele>119</ele>
        <time>2023-01-08T20:59:34Z</time>
      </trkpt>
      <trkpt lat="49.01351" lon="1.85891">
        <ele>119</ele>
        <time>2023-01-08T21:00:03Z</time>
      </trkpt>
      <trkpt lat="49.01347" lon="1.85898">
        <ele>119</ele>
        <time>2023-01-08T21:00:11Z</time>
      </trkpt>
      <trkpt lat="49.01343" lon="1.85894">
        <ele>119</ele>
        <time>2023-01-08T21:00:18Z</time>
      </trkpt>
      <trkpt lat="49.01334" lon="1.85899">
        <ele>119</ele>
        <time>2023-01-08T21:00:30Z</time>
      </trkpt>
      <trkpt lat="49.01312" lon="1.85925">
        <ele>122</ele>
        <time>2023-01-08T21:01:07Z</time>
      </trkpt>
      <trkpt lat="49.01297" lon="1.85964">
        <ele>124</ele>
        <time>2023-01-08T21:01:47Z</time>
      </trkpt>
      <trkpt lat="49.01285" lon="1.85966">
        <ele>125</ele>
        <time>2023-01-08T21:02:03Z</time>
      </trkpt>
      <trkpt lat="49.01277" lon="1.85975">
        <ele>125</ele>
        <time>2023-01-08T21:02:16Z</time>
      </trkpt>
      <trkpt lat="49.01275" lon="1.85972">
        <ele>125</ele>
        <time>2023-01-08T21:02:20Z</time>
      </trkpt>
      <trkpt lat="49.01269" lon="1.85987">
        <ele>126</ele>
        <time>2023-01-08T21:02:36Z</time>
      </trkpt>
      <trkpt lat="49.01255" lon="1.85997">
        <ele>127</ele>
        <time>2023-01-08T21:02:56Z</time>
      </trkpt>
      <trkpt lat="49.01253" lon="1.8602">
        <ele>128</ele>
        <time>2023-01-08T21:03:16Z</time>
      </trkpt>
      <trkpt lat="49.01247" lon="1.86029">
        <ele>129</ele>
        <time>2023-01-08T21:03:28Z</time>
      </trkpt>
      <trkpt lat="49.01235" lon="1.86028">
        <ele>130</ele>
        <time>2023-01-08T21:03:44Z</time>
      </trkpt>
      <trkpt lat="49.01239" lon="1.86035">
        <ele>130</ele>
        <time>2023-01-08T21:03:52Z</time>
      </trkpt>
      <trkpt lat="49.01237" lon="1.86045">
        <ele>131</ele>
        <time>2023-01-08T21:04:01Z</time>
      </trkpt>
      <trkpt lat="49.01216" lon="1.86058">
        <ele>133</ele>
        <time>2023-01-08T21:04:31Z</time>
      </trkpt>
      <trkpt lat="49.01214" lon="1.86072">
        <ele>134</ele>
        <time>2023-01-08T21:04:44Z</time>
      </trkpt>
      <trkpt lat="49.01207" lon="1.86084">
        <ele>135</ele>
        <time>2023-01-08T21:04:58Z</time>
      </trkpt>
      <trkpt lat="49.01194" lon="1.86094">
        <ele>136</ele>
        <time>2023-01-08T21:05:17Z</time>
      </trkpt>
      <trkpt lat="49.01184" lon="1.86095">
        <ele>136</ele>
        <time>2023-01-08T21:05:31Z</time>
      </trkpt>
      <trkpt lat="49.01173" lon="1.86107">
        <ele>137</ele>
        <time>2023-01-08T21:05:49Z</time>
      </trkpt>
      <trkpt lat="49.01152" lon="1.86118">
        <ele>139</ele>
        <time>2023-01-08T21:06:18Z</time>
      </trkpt>
      <trkpt lat="49.01145" lon="1.86146">
        <ele>140</ele>
        <time>2023-01-08T21:06:45Z</time>
      </trkpt>
      <trkpt lat="49.01138" lon="1.8616">
        <ele>141</ele>
        <time>2023-01-08T21:07:00Z</time>
      </trkpt>
      <trkpt lat="49.01131" lon="1.86164">
        <ele>142</ele>
        <time>2023-01-08T21:07:10Z</time>
      </trkpt>
      <trkpt lat="49.01136" lon="1.86157">
        <ele>141</ele>
        <time>2023-01-08T21:07:19Z</time>
      </trkpt>
      <trkpt lat="49.01132" lon="1.86174">
        <ele>142</ele>
        <time>2023-01-08T21:07:35Z</time>
      </trkpt>
      <trkpt lat="49.01135" lon="1.86187">
        <ele>141</ele>
        <time>2023-01-08T21:07:47Z</time>
      </trkpt>
      <trkpt lat="49.01109" lon="1.86211">
        <ele>143</ele>
        <time>2023-01-08T21:08:27Z</time>
      </trkpt>
      <trkpt lat="49.01084" lon="1.86267">
        <ele>145</ele>
        <time>2023-01-08T21:09:27Z</time>
      </trkpt>
      <trkpt lat="49.01063" lon="1.86289">
        <ele>144</ele>
        <time>2023-01-08T21:10:01Z</time>
      </trkpt>
      <trkpt lat="49.01063" lon="1.86308">
        <ele>144</ele>
        <time>2023-01-08T21:10:17Z</time>
      </trkpt>
      <trkpt lat="49.01051" lon="1.86326">
        <ele>144</ele>
        <time>2023-01-08T21:10:40Z</time>
      </trkpt>
      <trkpt lat="49.01052" lon="1.8633">
        <ele>144</ele>
        <time>2023-01-08T21:10:44Z</time>
      </trkpt>
      <trkpt lat="49.0103" lon="1.86344">
        <ele>143</ele>
        <time>2023-01-08T21:11:15Z</time>
      </trkpt>
      <trkpt lat="49.01027" lon="1.86342">
        <ele>143</ele>
        <time>2023-01-08T21:11:20Z</time>
      </trkpt>
      <trkpt lat="49.0103" lon="1.86363">
        <ele>142</ele>
        <time>2023-01-08T21:11:39Z</time>
      </trkpt>
      <trkpt lat="49.0102" lon="1.86391">
        <ele>142</ele>
        <time>2023-01-08T21:12:07Z</time>
      </trkpt>
      <trkpt lat="49.00997" lon="1.86427">
        <ele>140</ele>
        <time>2023-01-08T21:12:51Z</time>
      </trkpt>
      <trkpt lat="49.00985" lon="1.86434">
        <ele>138</ele>
        <time>2023-01-08T21:13:08Z</time>
      </trkpt>
      <trkpt lat="49.00976" lon="1.86451">
        <ele>137</ele>
        <time>2023-01-08T21:13:27Z</time>
      </trkpt>
      <trkpt lat="49.00972" lon="1.86418">
        <ele>137</ele>
        <time>2023-01-08T21:13:56Z</time>
      </trkpt>
      <trkpt lat="49.0098" lon="1.86309">
        <ele>139</ele>
        <time>2023-01-08T21:15:32Z</time>
      </trkpt>
      <trkpt lat="49.00979" lon="1.86236">
        <ele>139</ele>
        <time>2023-01-08T21:16:36Z</time>
      </trkpt>
      <trkpt lat="49.00983" lon="1.86174">
        <ele>140</ele>
        <time>2023-01-08T21:17:31Z</time>
      </trkpt>
      <trkpt lat="49.00975" lon="1.86048">
        <ele>144</ele>
        <time>2023-01-08T21:19:21Z</time>
      </trkpt>
      <trkpt lat="49.00957" lon="1.85939">
        <ele>146</ele>
        <time>2023-01-08T21:21:00Z</time>
      </trkpt>
      <trkpt lat="49.0095" lon="1.85918">
        <ele>146</ele>
        <time>2023-01-08T21:21:20Z</time>
      </trkpt>
      <trkpt lat="49.00955" lon="1.85858">
        <ele>146</ele>
        <time>2023-01-08T21:22:13Z</time>
      </trkpt>
      <trkpt lat="49.00949" lon="1.85775">
        <ele>148</ele>
        <time>2023-01-08T21:23:26Z</time>
      </trkpt>
      <trkpt lat="49.00923" lon="1.85703">
        <ele>151</ele>
        <time>2023-01-08T21:24:38Z</time>
      </trkpt>
      <trkpt lat="49.00922" lon="1.85639">
        <ele>154</ele>
        <time>2023-01-08T21:25:34Z</time>
      </trkpt>
      <trkpt lat="49.00907" lon="1.85609">
        <ele>155</ele>
        <time>2023-01-08T21:26:07Z</time>
      </trkpt>
      <trkpt lat="49.00906" lon="1.85572">
        <ele>156</ele>
        <time>2023-01-08T21:26:40Z</time>
      </trkpt>
      <trkpt lat="49.00891" lon="1.8552">
        <ele>154</ele>
        <time>2023-01-08T21:27:30Z</time>
      </trkpt>
      <trkpt lat="49.00874" lon="1.8548">
        <ele>152</ele>
        <time>2023-01-08T21:28:11Z</time>
      </trkpt>
      <trkpt lat="49.00866" lon="1.85438">
        <ele>153</ele>
        <time>2023-01-08T21:28:50Z</time>
      </trkpt>
      <trkpt lat="49.00865" lon="1.85419">
        <ele>153</ele>
        <time>2023-01-08T21:29:06Z</time>
      </trkpt>
      <trkpt lat="49.0087" lon="1.85409">
        <ele>154</ele>
        <time>2023-01-08T21:29:17Z</time>
      </trkpt>
      <trkpt lat="49.00823" lon="1.85249">
        <ele>158</ele>
        <time>2023-01-08T21:31:51Z</time>
      </trkpt>
      <trkpt lat="49.00819" lon="1.85211">
        <ele>159</ele>
        <time>2023-01-08T21:32:24Z</time>
      </trkpt>
      <trkpt lat="49.0083" lon="1.85186">
        <ele>158</ele>
        <time>2023-01-08T21:32:51Z</time>
      </trkpt>
      <trkpt lat="49.00831" lon="1.85101">
        <ele>165</ele>
        <time>2023-01-08T21:34:05Z</time>
      </trkpt>
      <trkpt lat="49.00843" lon="1.85049">
        <ele>171</ele>
        <time>2023-01-08T21:34:53Z</time>
      </trkpt>
      <trkpt lat="49.00823" lon="1.84993">
        <ele>179</ele>
        <time>2023-01-08T21:35:49Z</time>
      </trkpt>
      <trkpt lat="49.00813" lon="1.8495">
        <ele>181</ele>
        <time>2023-01-08T21:36:29Z</time>
      </trkpt>
      <trkpt lat="49.00795" lon="1.84926">
        <ele>182</ele>
        <time>2023-01-08T21:37:01Z</time>
      </trkpt>
      <trkpt lat="49.00753" lon="1.84781">
        <ele>185</ele>
        <time>2023-01-08T21:39:20Z</time>
      </trkpt>
      <trkpt lat="49.00798" lon="1.84603">
        <ele>185</ele>
        <time>2023-01-08T21:42:07Z</time>
      </trkpt>
      <trkpt lat="49.00809" lon="1.84585">
        <ele>184</ele>
        <time>2023-01-08T21:42:28Z</time>
      </trkpt>
      <trkpt lat="49.00849" lon="1.8447">
        <ele>185</ele>
        <time>2023-01-08T21:44:22Z</time>
      </trkpt>
      <trkpt lat="49.00872" lon="1.84418">
        <ele>186</ele>
        <time>2023-01-08T21:45:17Z</time>
      </trkpt>
      <trkpt lat="49.00875" lon="1.8437">
        <ele>186</ele>
        <time>2023-01-08T21:45:59Z</time>
      </trkpt>
      <trkpt lat="49.00883" lon="1.84344">
        <ele>186</ele>
        <time>2023-01-08T21:46:25Z</time>
      </trkpt>
      <trkpt lat="49.00893" lon="1.84328">
        <ele>186</ele>
        <time>2023-01-08T21:46:44Z</time>
      </trkpt>
      <trkpt lat="49.00897" lon="1.84293">
        <ele>186</ele>
        <time>2023-01-08T21:47:15Z</time>
      </trkpt>
      <trkpt lat="49.00914" lon="1.84252">
        <ele>186</ele>
        <time>2023-01-08T21:47:57Z</time>
      </trkpt>
      <trkpt lat="49.00933" lon="1.8419">
        <ele>187</ele>
        <time>2023-01-08T21:48:57Z</time>
      </trkpt>
      <trkpt lat="49.0096" lon="1.84079">
        <ele>188</ele>
        <time>2023-01-08T21:50:41Z</time>
      </trkpt>
      <trkpt lat="49.00969" lon="1.8402">
        <ele>188</ele>
        <time>2023-01-08T21:51:34Z</time>
      </trkpt>
      <trkpt lat="49.00999" lon="1.83927">
        <ele>187</ele>
        <time>2023-01-08T21:53:05Z</time>
      </trkpt>
      <trkpt lat="49.01001" lon="1.83873">
        <ele>185</ele>
        <time>2023-01-08T21:53:52Z</time>
      </trkpt>
      <trkpt lat="49.00998" lon="1.83868">
        <ele>185</ele>
        <time>2023-01-08T21:53:58Z</time>
      </trkpt>
      <trkpt lat="49.00992" lon="1.83869">
        <ele>185</ele>
        <time>2023-01-08T21:54:06Z</time>
      </trkpt>
      <trkpt lat="49.01002" lon="1.83872">
        <ele>185</ele>
        <time>2023-01-08T21:54:20Z</time>
      </trkpt>
      <trkpt lat="49.01029" lon="1.83893">
        <ele>186</ele>
        <time>2023-01-08T21:55:00Z</time>
      </trkpt>
      <trkpt lat="49.01059" lon="1.83938">
        <ele>186</ele>
        <time>2023-01-08T21:55:56Z</time>
      </trkpt>
      <trkpt lat="49.01098" lon="1.83979">
        <ele>185</ele>
        <time>2023-01-08T21:56:59Z</time>
      </trkpt>
      <trkpt lat="49.01122" lon="1.84014">
        <ele>183</ele>
        <time>2023-01-08T21:57:44Z</time>
      </trkpt>
      <trkpt lat="49.01139" lon="1.84012">
        <ele>183</ele>
        <time>2023-01-08T21:58:07Z</time>
      </trkpt>
      <trkpt lat="49.01153" lon="1.84003">
        <ele>182</ele>
        <time>2023-01-08T21:58:27Z</time>
      </trkpt>
      <trkpt lat="49.01181" lon="1.83972">
        <ele>183</ele>
        <time>2023-01-08T21:59:13Z</time>
      </trkpt>
      <trkpt lat="49.01215" lon="1.83943">
        <ele>184</ele>
        <time>2023-01-08T22:00:05Z</time>
      </trkpt>
      <trkpt lat="49.01255" lon="1.83925">
        <ele>185</ele>
        <time>2023-01-08T22:01:01Z</time>
      </trkpt>
      <trkpt lat="49.01275" lon="1.83927">
        <ele>184</ele>
        <time>2023-01-08T22:01:27Z</time>
      </trkpt>
      <trkpt lat="49.01282" lon="1.83924">
        <ele>184</ele>
        <time>2023-01-08T22:01:37Z</time>
      </trkpt>
      <trkpt lat="49.01308" lon="1.83953">
        <ele>184</ele>
        <time>2023-01-08T22:02:20Z</time>
      </trkpt>
      <trkpt lat="49.01341" lon="1.83962">
        <ele>183</ele>
        <time>2023-01-08T22:03:05Z</time>
      </trkpt>
      <trkpt lat="49.01375" lon="1.83979">
        <ele>182</ele>
        <time>2023-01-08T22:03:53Z</time>
      </trkpt>
      <trkpt lat="49.01399" lon="1.83979">
        <ele>182</ele>
        <time>2023-01-08T22:04:25Z</time>
      </trkpt>
      <trkpt lat="49.01416" lon="1.83985">
        <ele>181</ele>
        <time>2023-01-08T22:04:48Z</time>
      </trkpt>
      <trkpt lat="49.01453" lon="1.84013">
        <ele>178</ele>
        <time>2023-01-08T22:05:43Z</time>
      </trkpt>
      <trkpt lat="49.01463" lon="1.84027">
        <ele>177</ele>
        <time>2023-01-08T22:06:01Z</time>
      </trkpt>
      <trkpt lat="49.01491" lon="1.8405">
        <ele>173</ele>
        <time>2023-01-08T22:06:44Z</time>
      </trkpt>
      <trkpt lat="49.01505" lon="1.84067">
        <ele>171</ele>
        <time>2023-01-08T22:07:07Z</time>
      </trkpt>
      <trkpt lat="49.01517" lon="1.84073">
        <ele>169</ele>
        <time>2023-01-08T22:07:24Z</time>
      </trkpt>
      <trkpt lat="49.01519" lon="1.84076">
        <ele>168</ele>
        <time>2023-01-08T22:07:28Z</time>
      </trkpt>
      <trkpt lat="49.01512" lon="1.84096">
        <ele>169</ele>
        <time>2023-01-08T22:07:48Z</time>
      </trkpt>
      <trkpt lat="49.01492" lon="1.84129">
        <ele>171</ele>
        <time>2023-01-08T22:08:27Z</time>
      </trkpt>
      <trkpt lat="49.01444" lon="1.84177">
        <ele>174</ele>
        <time>2023-01-08T22:09:44Z</time>
      </trkpt>
      <trkpt lat="49.01425" lon="1.84217">
        <ele>175</ele>
        <time>2023-01-08T22:10:27Z</time>
      </trkpt>
      <trkpt lat="49.0142" lon="1.8424">
        <ele>175</ele>
        <time>2023-01-08T22:10:48Z</time>
      </trkpt>
      <trkpt lat="49.01372" lon="1.84345">
        <ele>172</ele>
        <time>2023-01-08T22:12:40Z</time>
      </trkpt>
      <trkpt lat="49.01366" lon="1.8438">
        <ele>171</ele>
        <time>2023-01-08T22:13:12Z</time>
      </trkpt>
      <trkpt lat="49.01339" lon="1.84448">
        <ele>170</ele>
        <time>2023-01-08T22:14:21Z</time>
      </trkpt>
      <trkpt lat="49.01339" lon="1.84535">
        <ele>168</ele>
        <time>2023-01-08T22:15:38Z</time>
      </trkpt>
      <trkpt lat="49.01333" lon="1.84572">
        <ele>167</ele>
        <time>2023-01-08T22:16:11Z</time>
      </trkpt>
      <trkpt lat="49.0134" lon="1.84605">
        <ele>164</ele>
        <time>2023-01-08T22:16:41Z</time>
      </trkpt>
      <trkpt lat="49.01342" lon="1.84611">
        <ele>164</ele>
        <time>2023-01-08T22:16:47Z</time>
      </trkpt>
      <trkpt lat="49.01351" lon="1.84614">
        <ele>163</ele>
        <time>2023-01-08T22:17:00Z</time>
      </trkpt>
      <trkpt lat="49.01424" lon="1.84605">
        <ele>158</ele>
        <time>2023-01-08T22:18:37Z</time>
      </trkpt>
      <trkpt lat="49.01443" lon="1.84544">
        <ele>158</ele>
        <time>2023-01-08T22:19:36Z</time>
      </trkpt>
      <trkpt lat="49.01445" lon="1.84502">
        <ele>159</ele>
        <time>2023-01-08T22:20:13Z</time>
      </trkpt>
      <trkpt lat="49.0144" lon="1.84479">
        <ele>161</ele>
        <time>2023-01-08T22:20:34Z</time>
      </trkpt>
      <trkpt lat="49.01443" lon="1.84471">
        <ele>161</ele>
        <time>2023-01-08T22:20:43Z</time>
      </trkpt>
      <trkpt lat="49.01451" lon="1.84462">
        <ele>161</ele>
        <time>2023-01-08T22:20:56Z</time>
      </trkpt>
      <trkpt lat="49.0146" lon="1.84459">
        <ele>160</ele>
        <time>2023-01-08T22:21:08Z</time>
      </trkpt>
      <trkpt lat="49.01473" lon="1.84462">
        <ele>158</ele>
        <time>2023-01-08T22:21:26Z</time>
      </trkpt>
      <trkpt lat="49.01504" lon="1.84443">
        <ele>154</ele>
        <time>2023-01-08T22:22:10Z</time>
      </trkpt>
      <trkpt lat="49.01522" lon="1.8444">
        <ele>152</ele>
        <time>2023-01-08T22:22:34Z</time>
      </trkpt>
      <trkpt lat="49.01536" lon="1.84453">
        <ele>150</ele>
        <time>2023-01-08T22:22:56Z</time>
      </trkpt>
      <trkpt lat="49.01547" lon="1.84477">
        <ele>148</ele>
        <time>2023-01-08T22:23:22Z</time>
      </trkpt>
      <trkpt lat="49.01583" lon="1.84514">
        <ele>142</ele>
        <time>2023-01-08T22:24:20Z</time>
      </trkpt>
      <trkpt lat="49.01579" lon="1.84589">
        <ele>143</ele>
        <time>2023-01-08T22:25:26Z</time>
      </trkpt>
      <trkpt lat="49.01583" lon="1.8462">
        <ele>143</ele>
        <time>2023-01-08T22:25:53Z</time>
      </trkpt>
      <trkpt lat="49.01571" lon="1.84672">
        <ele>144</ele>
        <time>2023-01-08T22:26:42Z</time>
      </trkpt>
      <trkpt lat="49.01573" lon="1.84712">
        <ele>145</ele>
        <time>2023-01-08T22:27:17Z</time>
      </trkpt>
      <trkpt lat="49.01568" lon="1.84732">
        <ele>146</ele>
        <time>2023-01-08T22:27:35Z</time>
      </trkpt>
      <trkpt lat="49.01579" lon="1.84775">
        <ele>146</ele>
        <time>2023-01-08T22:28:16Z</time>
      </trkpt>
      <trkpt lat="49.01606" lon="1.84782">
        <ele>141</ele>
        <time>2023-01-08T22:28:52Z</time>
      </trkpt>
      <trkpt lat="49.01637" lon="1.84815">
        <ele>135</ele>
        <time>2023-01-08T22:29:43Z</time>
      </trkpt>
      <trkpt lat="49.01659" lon="1.8485">
        <ele>131</ele>
        <time>2023-01-08T22:30:25Z</time>
      </trkpt>
      <trkpt lat="49.01684" lon="1.84863">
        <ele>129</ele>
        <time>2023-01-08T22:31:00Z</time>
      </trkpt>
      <trkpt lat="49.01772" lon="1.84931">
        <ele>122</ele>
        <time>2023-01-08T22:33:12Z</time>
      </trkpt>
      <trkpt lat="49.01777" lon="1.8493">
        <ele>122</ele>
        <time>2023-01-08T22:33:19Z</time>
      </trkpt>
      <trkpt lat="49.01834" lon="1.84812">
        <ele>122</ele>
        <time>2023-01-08T22:35:27Z</time>
      </trkpt>
      <trkpt lat="49.01871" lon="1.84755">
        <ele>120</ele>
        <time>2023-01-08T22:36:37Z</time>
      </trkpt>
      <trkpt lat="49.01892" lon="1.84707">
        <ele>119</ele>
        <time>2023-01-08T22:37:28Z</time>
      </trkpt>
      <trkpt lat="49.01899" lon="1.84696">
        <ele>119</ele>
        <time>2023-01-08T22:37:41Z</time>
      </trkpt>
      <trkpt lat="49.01935" lon="1.84662">
        <ele>117</ele>
        <time>2023-01-08T22:38:38Z</time>
      </trkpt>
      <trkpt lat="49.01958" lon="1.84627">
        <ele>118</ele>
        <time>2023-01-08T22:39:21Z</time>
      </trkpt>
      <trkpt lat="49.01975" lon="1.84585">
        <ele>120</ele>
        <time>2023-01-08T22:40:04Z</time>
      </trkpt>
      <trkpt lat="49.01977" lon="1.84574">
        <ele>121</ele>
        <time>2023-01-08T22:40:14Z</time>
      </trkpt>
      <trkpt lat="49.0197" lon="1.84571">
        <ele>122</ele>
        <time>2023-01-08T22:40:24Z</time>
      </trkpt>
      <trkpt lat="49.01972" lon="1.84576">
        <ele>121</ele>
        <time>2023-01-08T22:40:29Z</time>
      </trkpt>
      <trkpt lat="49.01979" lon="1.84568">
        <ele>122</ele>
        <time>2023-01-08T22:40:41Z</time>
      </trkpt>
      <trkpt lat="49.01996" lon="1.84486">
        <ele>131</ele>
        <time>2023-01-08T22:41:56Z</time>
      </trkpt>
      <trkpt lat="49.02028" lon="1.84418">
        <ele>136</ele>
        <time>2023-01-08T22:43:09Z</time>
      </trkpt>
      <trkpt lat="49.02039" lon="1.84384">
        <ele>134</ele>
        <time>2023-01-08T22:43:42Z</time>
      </trkpt>
      <trkpt lat="49.02059" lon="1.84353">
        <ele>131</ele>
        <time>2023-01-08T22:44:21Z</time>
      </trkpt>
      <trkpt lat="49.02082" lon="1.84271">
        <ele>129</ele>
        <time>2023-01-08T22:45:39Z</time>
      </trkpt>
      <trkpt lat="49.02091" lon="1.8411">
        <ele>125</ele>
        <time>2023-01-08T22:48:00Z</time>
      </trkpt>
      <trkpt lat="49.02104" lon="1.83985">
        <ele>123</ele>
        <time>2023-01-08T22:49:51Z</time>
      </trkpt>
      <trkpt lat="49.02155" lon="1.83885">
        <ele>122</ele>
        <time>2023-01-08T22:51:42Z</time>
      </trkpt>
      <trkpt lat="49.02198" lon="1.83766">
        <ele>121</ele>
        <time>2023-01-08T22:53:40Z</time>
      </trkpt>
      <trkpt lat="49.02225" lon="1.83658">
        <ele>119</ele>
        <time>2023-01-08T22:55:22Z</time>
      </trkpt>
      <trkpt lat="49.02237" lon="1.8357">
        <ele>118</ele>
        <time>2023-01-08T22:56:40Z</time>
      </trkpt>
      <trkpt lat="49.02231" lon="1.83497">
        <ele>116</ele>
        <time>2023-01-08T22:57:45Z</time>
      </trkpt>
      <trkpt lat="49.02232" lon="1.8333">
        <ele>115</ele>
        <time>2023-01-08T23:00:11Z</time>
      </trkpt>
      <trkpt lat="49.02225" lon="1.83286">
        <ele>115</ele>
        <time>2023-01-08T23:00:50Z</time>
      </trkpt>
      <trkpt lat="49.02222" lon="1.83227">
        <ele>115</ele>
        <time>2023-01-08T23:01:42Z</time>
      </trkpt>
      <trkpt lat="49.02248" lon="1.8308">
        <ele>114</ele>
        <time>2023-01-08T23:03:55Z</time>
      </trkpt>
      <trkpt lat="49.02246" lon="1.82986">
        <ele>124</ele>
        <time>2023-01-08T23:05:18Z</time>
      </trkpt>
      <trkpt lat="49.02237" lon="1.82939">
        <ele>123</ele>
        <time>2023-01-08T23:06:01Z</time>
      </trkpt>
      <trkpt lat="49.02236" lon="1.82884">
        <ele>121</ele>
        <time>2023-01-08T23:06:49Z</time>
      </trkpt>
      <trkpt lat="49.0224" lon="1.82856">
        <ele>120</ele>
        <time>2023-01-08T23:07:14Z</time>
      </trkpt>
      <trkpt lat="49.0225" lon="1.82852">
        <ele>120</ele>
        <time>2023-01-08T23:07:28Z</time>
      </trkpt>
      <trkpt lat="49.023" lon="1.82861">
        <ele>121</ele>
        <time>2023-01-08T23:08:35Z</time>
      </trkpt>
      <trkpt lat="49.02351" lon="1.82856">
        <ele>120</ele>
        <time>2023-01-08T23:09:43Z</time>
      </trkpt>
      <trkpt lat="49.02369" lon="1.82865">
        <ele>120</ele>
        <time>2023-01-08T23:10:08Z</time>
      </trkpt>
      <trkpt lat="49.02391" lon="1.82885">
        <ele>119</ele>
        <time>2023-01-08T23:10:42Z</time>
      </trkpt>
      <trkpt lat="49.02402" lon="1.82888">
        <ele>118</ele>
        <time>2023-01-08T23:10:57Z</time>
      </trkpt>
      <trkpt lat="49.02417" lon="1.82901">
        <ele>117</ele>
        <time>2023-01-08T23:11:20Z</time>
      </trkpt>
      <trkpt lat="49.02427" lon="1.82895">
        <ele>116</ele>
        <time>2023-01-08T23:11:35Z</time>
      </trkpt>
      <trkpt lat="49.02437" lon="1.82873">
        <ele>115</ele>
        <time>2023-01-08T23:11:58Z</time>
      </trkpt>
      <trkpt lat="49.02454" lon="1.82815">
        <ele>113</ele>
        <time>2023-01-08T23:12:54Z</time>
      </trkpt>
      <trkpt lat="49.0251" lon="1.8268">
        <ele>113</ele>
        <time>2023-01-08T23:15:14Z</time>
      </trkpt>
      <trkpt lat="49.02545" lon="1.82581">
        <ele>113</ele>
        <time>2023-01-08T23:16:52Z</time>
      </trkpt>
      <trkpt lat="49.02587" lon="1.82491">
        <ele>113</ele>
        <time>2023-01-08T23:18:29Z</time>
      </trkpt>
      <trkpt lat="49.02625" lon="1.82342">
        <ele>109</ele>
        <time>2023-01-08T23:20:49Z</time>
      </trkpt>
      <trkpt lat="49.02643" lon="1.82296">
        <ele>106</ele>
        <time>2023-01-08T23:21:35Z</time>
      </trkpt>
      <trkpt lat="49.02648" lon="1.82262">
        <ele>103</ele>
        <time>2023-01-08T23:22:06Z</time>
      </trkpt>
      <trkpt lat="49.02647" lon="1.82226">
        <ele>101</ele>
        <time>2023-01-08T23:22:37Z</time>
      </trkpt>
      <trkpt lat="49.02631" lon="1.82108">
        <ele>93</ele>
        <time>2023-01-08T23:24:23Z</time>
      </trkpt>
      <trkpt lat="49.02625" lon="1.82026">
        <ele>89</ele>
        <time>2023-01-08T23:25:35Z</time>
      </trkpt>
      <trkpt lat="49.02625" lon="1.81989">
        <ele>88</ele>
        <time>2023-01-08T23:26:07Z</time>
      </trkpt>
      <trkpt lat="49.02631" lon="1.81968">
        <ele>86</ele>
        <time>2023-01-08T23:26:27Z</time>
      </trkpt>
      <trkpt lat="49.02645" lon="1.8195">
        <ele>85</ele>
        <time>2023-01-08T23:26:52Z</time>
      </trkpt>
      <trkpt lat="49.02671" lon="1.81929">
        <ele>83</ele>
        <time>2023-01-08T23:27:31Z</time>
      </trkpt>
      <trkpt lat="49.02684" lon="1.81923">
        <ele>83</ele>
        <time>2023-01-08T23:27:49Z</time>
      </trkpt>
      <trkpt lat="49.02687" lon="1.81925">
        <ele>83</ele>
        <time>2023-01-08T23:27:54Z</time>
      </trkpt>
      <trkpt lat="49.027" lon="1.81909">
        <ele>84</ele>
        <time>2023-01-08T23:28:16Z</time>
      </trkpt>
      <trkpt lat="49.02739" lon="1.81837">
        <ele>91</ele>
        <time>2023-01-08T23:29:38Z</time>
      </trkpt>
      <trkpt lat="49.02763" lon="1.81778">
        <ele>103</ele>
        <time>2023-01-08T23:30:38Z</time>
      </trkpt>
      <trkpt lat="49.02785" lon="1.81755">
        <ele>107</ele>
        <time>2023-01-08T23:31:14Z</time>
      </trkpt>
      <trkpt lat="49.02796" lon="1.81726">
        <ele>109</ele>
        <time>2023-01-08T23:31:43Z</time>
      </trkpt>
      <trkpt lat="49.02818" lon="1.81692">
        <ele>111</ele>
        <time>2023-01-08T23:32:25Z</time>
      </trkpt>
      <trkpt lat="49.0284" lon="1.8167">
        <ele>110</ele>
        <time>2023-01-08T23:33:00Z</time>
      </trkpt>
      <trkpt lat="49.02884" lon="1.81571">
        <ele>102</ele>
        <time>2023-01-08T23:34:45Z</time>
      </trkpt>
      <trkpt lat="49.029" lon="1.81544">
        <ele>101</ele>
        <time>2023-01-08T23:35:17Z</time>
      </trkpt>
      <trkpt lat="49.02921" lon="1.81519">
        <ele>100</ele>
        <time>2023-01-08T23:35:52Z</time>
      </trkpt>
      <trkpt lat="49.02928" lon="1.81518">
        <ele>99</ele>
        <time>2023-01-08T23:36:02Z</time>
      </trkpt>
      <trkpt lat="49.02941" lon="1.81524">
        <ele>97</ele>
        <time>2023-01-08T23:36:20Z</time>
      </trkpt>
      <trkpt lat="49.02994" lon="1.81579">
        <ele>89</ele>
        <time>2023-01-08T23:37:45Z</time>
      </trkpt>
      <trkpt lat="49.03003" lon="1.81583">
        <ele>88</ele>
        <time>2023-01-08T23:37:58Z</time>
      </trkpt>
      <trkpt lat="49.03025" lon="1.81577">
        <ele>87</ele>
        <time>2023-01-08T23:38:28Z</time>
      </trkpt>
      <trkpt lat="49.03076" lon="1.81614">
        <ele>83</ele>
        <time>2023-01-08T23:39:43Z</time>
      </trkpt>
      <trkpt lat="49.03171" lon="1.81716">
        <ele>83</ele>
        <time>2023-01-08T23:42:18Z</time>
      </trkpt>
      <trkpt lat="49.03172" lon="1.81732">
        <ele>83</ele>
        <time>2023-01-08T23:42:32Z</time>
      </trkpt>
      <trkpt lat="49.03182" lon="1.81741">
        <ele>84</ele>
        <time>2023-01-08T23:42:48Z</time>
      </trkpt>
      <trkpt lat="49.03198" lon="1.81744">
        <ele>85</ele>
        <time>2023-01-08T23:43:09Z</time>
      </trkpt>
      <trkpt lat="49.03213" lon="1.81758">
        <ele>87</ele>
        <time>2023-01-08T23:43:33Z</time>
      </trkpt>
      <trkpt lat="49.03221" lon="1.81759">
        <ele>88</ele>
        <time>2023-01-08T23:43:43Z</time>
      </trkpt>
      <trkpt lat="49.03227" lon="1.81755">
        <ele>89</ele>
        <time>2023-01-08T23:43:52Z</time>
      </trkpt>
      <trkpt lat="49.0325" lon="1.81718">
        <ele>91</ele>
        <time>2023-01-08T23:44:37Z</time>
      </trkpt>
      <trkpt lat="49.03277" lon="1.81667">
        <ele>93</ele>
        <time>2023-01-08T23:45:34Z</time>
      </trkpt>
      <trkpt lat="49.03296" lon="1.81643">
        <ele>94</ele>
        <time>2023-01-08T23:46:07Z</time>
      </trkpt>
      <trkpt lat="49.03323" lon="1.81639">
        <ele>96</ele>
        <time>2023-01-08T23:46:43Z</time>
      </trkpt>
      <trkpt lat="49.03332" lon="1.81641">
        <ele>96</ele>
        <time>2023-01-08T23:46:55Z</time>
      </trkpt>
      <trkpt lat="49.03336" lon="1.81646">
        <ele>97</ele>
        <time>2023-01-08T23:47:02Z</time>
      </trkpt>
      <trkpt lat="49.03351" lon="1.81626">
        <ele>97</ele>
        <time>2023-01-08T23:47:29Z</time>
      </trkpt>
      <trkpt lat="49.03377" lon="1.81608">
        <ele>98</ele>
        <time>2023-01-08T23:48:07Z</time>
      </trkpt>
      <trkpt lat="49.03422" lon="1.81619">
        <ele>102</ele>
        <time>2023-01-08T23:49:08Z</time>
      </trkpt>
      <trkpt lat="49.0346" lon="1.81622">
        <ele>106</ele>
        <time>2023-01-08T23:49:58Z</time>
      </trkpt>
      <trkpt lat="49.03493" lon="1.81606">
        <ele>108</ele>
        <time>2023-01-08T23:50:45Z</time>
      </trkpt>
      <trkpt lat="49.03519" lon="1.81578">
        <ele>109</ele>
        <time>2023-01-08T23:51:27Z</time>
      </trkpt>
      <trkpt lat="49.0358" lon="1.81484">
        <ele>116</ele>
        <time>2023-01-08T23:53:23Z</time>
      </trkpt>
      <trkpt lat="49.03598" lon="1.81449">
        <ele>118</ele>
        <time>2023-01-08T23:54:02Z</time>
      </trkpt>
      <trkpt lat="49.03593" lon="1.81449">
        <ele>117</ele>
        <time>2023-01-08T23:54:08Z</time>
      </trkpt>
      <trkpt lat="49.03598" lon="1.81451">
        <ele>118</ele>
        <time>2023-01-08T23:54:15Z</time>
      </trkpt>
      <trkpt lat="49.036" lon="1.81446">
        <ele>118</ele>
        <time>2023-01-08T23:54:20Z</time>
      </trkpt>
      <trkpt lat="49.03608" lon="1.81444">
        <ele>118</ele>
        <time>2023-01-08T23:54:31Z</time>
      </trkpt>
      <trkpt lat="49.0371" lon="1.81342">
        <ele>123</ele>
        <time>2023-01-08T23:57:14Z</time>
      </trkpt>
      <trkpt lat="49.03762" lon="1.81303">
        <ele>124</ele>
        <time>2023-01-08T23:58:31Z</time>
      </trkpt>
      <trkpt lat="49.03784" lon="1.81294">
        <ele>124</ele>
        <time>2023-01-08T23:59:02Z</time>
      </trkpt>
      <trkpt lat="49.03814" lon="1.81289">
        <ele>125</ele>
        <time>2023-01-08T23:59:42Z</time>
      </trkpt>
      <trkpt lat="49.0387" lon="1.81257">
        <ele>125</ele>
        <time>2023-01-09T00:01:02Z</time>
      </trkpt>
      <trkpt lat="49.03946" lon="1.81179">
        <ele>126</ele>
        <time>2023-01-09T00:03:04Z</time>
      </trkpt>
      <trkpt lat="49.03968" lon="1.81165">
        <ele>126</ele>
        <time>2023-01-09T00:03:36Z</time>
      </trkpt>
      <trkpt lat="49.03988" lon="1.8116">
        <ele>127</ele>
        <time>2023-01-09T00:04:03Z</time>
      </trkpt>
      <trkpt lat="49.04016" lon="1.81172">
        <ele>127</ele>
        <time>2023-01-09T00:04:42Z</time>
      </trkpt>
      <trkpt lat="49.04047" lon="1.81198">
        <ele>128</ele>
        <time>2023-01-09T00:05:29Z</time>
      </trkpt>
      <trkpt lat="49.04053" lon="1.81205">
        <ele>128</ele>
        <time>2023-01-09T00:05:39Z</time>
      </trkpt>
      <trkpt lat="49.04053" lon="1.81218">
        <ele>128</ele>
        <time>2023-01-09T00:05:50Z</time>
      </trkpt>
      <trkpt lat="49.04001" lon="1.81304">
        <ele>128</ele>
        <time>2023-01-09T00:07:33Z</time>
      </trkpt>
      <trkpt lat="49.03972" lon="1.81371">
        <ele>128</ele>
        <time>2023-01-09T00:08:43Z</time>
      </trkpt>
      <trkpt lat="49.03937" lon="1.81426">
        <ele>128</ele>
        <time>2023-01-09T00:09:50Z</time>
      </trkpt>
      <trkpt lat="49.03921" lon="1.81459">
        <ele>127</ele>
        <time>2023-01-09T00:10:26Z</time>
      </trkpt>
      <trkpt lat="49.03899" lon="1.81523">
        <ele>128</ele>
        <time>2023-01-09T00:11:29Z</time>
      </trkpt>
      <trkpt lat="49.03881" lon="1.81607">
        <ele>129</ele>
        <time>2023-01-09T00:12:46Z</time>
      </trkpt>
      <trkpt lat="49.03855" lon="1.81688">
        <ele>127</ele>
        <time>2023-01-09T00:14:05Z</time>
      </trkpt>
      <trkpt lat="49.03778" lon="1.81859">
        <ele>128</ele>
        <time>2023-01-09T00:17:07Z</time>
      </trkpt>
      <trkpt lat="49.03762" lon="1.81886">
        <ele>128</ele>
        <time>2023-01-09T00:17:39Z</time>
      </trkpt>
      <trkpt lat="49.03752" lon="1.81923">
        <ele>128</ele>
        <time>2023-01-09T00:18:14Z</time>
      </trkpt>
      <trkpt lat="49.03734" lon="1.81948">
        <ele>126</ele>
        <time>2023-01-09T00:18:46Z</time>
      </trkpt>
      <trkpt lat="49.03723" lon="1.82062">
        <ele>123</ele>
        <time>2023-01-09T00:20:27Z</time>
      </trkpt>
      <trkpt lat="49.03663" lon="1.82314">
        <ele>121</ele>
        <time>2023-01-09T00:24:22Z</time>
      </trkpt>
      <trkpt lat="49.03619" lon="1.82458">
        <ele>119</ele>
        <time>2023-01-09T00:26:41Z</time>
      </trkpt>
      <trkpt lat="49.03614" lon="1.82487">
        <ele>118</ele>
        <time>2023-01-09T00:27:07Z</time>
      </trkpt>
      <trkpt lat="49.03558" lon="1.82676">
        <ele>114</ele>
        <time>2023-01-09T00:30:08Z</time>
      </trkpt>
      <trkpt lat="49.0354" lon="1.8275">
        <ele>114</ele>
        <time>2023-01-09T00:31:17Z</time>
      </trkpt>
      <trkpt lat="49.0353" lon="1.82774">
        <ele>114</ele>
        <time>2023-01-09T00:31:42Z</time>
      </trkpt>
      <trkpt lat="49.03519" lon="1.82824">
        <ele>114</ele>
        <time>2023-01-09T00:32:28Z</time>
      </trkpt>
      <trkpt lat="49.03501" lon="1.82867">
        <ele>114</ele>
        <time>2023-01-09T00:33:13Z</time>
      </trkpt>
      <trkpt lat="49.03483" lon="1.82926">
        <ele>113</ele>
        <time>2023-01-09T00:34:10Z</time>
      </trkpt>
      <trkpt lat="49.03453" lon="1.83068">
        <ele>113</ele>
        <time>2023-01-09T00:36:20Z</time>
      </trkpt>
      <trkpt lat="49.03424" lon="1.83156">
        <ele>113</ele>
        <time>2023-01-09T00:37:47Z</time>
      </trkpt>
      <trkpt lat="49.0341" lon="1.83247">
        <ele>113</ele>
        <time>2023-01-09T00:39:08Z</time>
      </trkpt>
      <trkpt lat="49.03389" lon="1.83333">
        <ele>112</ele>
        <time>2023-01-09T00:40:29Z</time>
      </trkpt>
      <trkpt lat="49.03372" lon="1.83436">
        <ele>110</ele>
        <time>2023-01-09T00:42:02Z</time>
      </trkpt>
      <trkpt lat="49.03366" lon="1.83528">
        <ele>110</ele>
        <time>2023-01-09T00:43:22Z</time>
      </trkpt>
      <trkpt lat="49.03367" lon="1.83539">
        <ele>110</ele>
        <time>2023-01-09T00:43:32Z</time>
      </trkpt>
      <trkpt lat="49.03375" lon="1.83549">
        <ele>110</ele>
        <time>2023-01-09T00:43:46Z</time>
      </trkpt>
      <trkpt lat="49.03374" lon="1.83576">
        <ele>111</ele>
        <time>2023-01-09T00:44:10Z</time>
      </trkpt>
      <trkpt lat="49.03386" lon="1.83673">
        <ele>109</ele>
        <time>2023-01-09T00:45:36Z</time>
      </trkpt>
      <trkpt lat="49.03386" lon="1.83704">
        <ele>109</ele>
        <time>2023-01-09T00:46:03Z</time>
      </trkpt>
      <trkpt lat="49.03381" lon="1.83795">
        <ele>107</ele>
        <time>2023-01-09T00:47:23Z</time>
      </trkpt>
      <trkpt lat="49.03371" lon="1.83861">
        <ele>107</ele>
        <time>2023-01-09T00:48:22Z</time>
      </trkpt>
      <trkpt lat="49.03365" lon="1.83977">
        <ele>107</ele>
        <time>2023-01-09T00:50:04Z</time>
      </trkpt>
      <trkpt lat="49.03372" lon="1.84034">
        <ele>106</ele>
        <time>2023-01-09T00:50:55Z</time>
      </trkpt>
      <trkpt lat="49.03402" lon="1.84093">
        <ele>103</ele>
        <time>2023-01-09T00:52:00Z</time>
      </trkpt>
      <trkpt lat="49.03407" lon="1.84128">
        <ele>101</ele>
        <time>2023-01-09T00:52:31Z</time>
      </trkpt>
      <trkpt lat="49.03393" lon="1.84188">
        <ele>101</ele>
        <time>2023-01-09T00:53:27Z</time>
      </trkpt>
      <trkpt lat="49.03397" lon="1.84194">
        <ele>100</ele>
        <time>2023-01-09T00:53:35Z</time>
      </trkpt>
      <trkpt lat="49.03393" lon="1.84217">
        <ele>101</ele>
        <time>2023-01-09T00:53:55Z</time>
      </trkpt>
      <trkpt lat="49.03375" lon="1.84277">
        <ele>100</ele>
        <time>2023-01-09T00:54:53Z</time>
      </trkpt>
      <trkpt lat="49.03371" lon="1.84407">
        <ele>96</ele>
        <time>2023-01-09T00:56:47Z</time>
      </trkpt>
      <trkpt lat="49.0336" lon="1.84463">
        <ele>95</ele>
        <time>2023-01-09T00:57:38Z</time>
      </trkpt>
      <trkpt lat="49.03362" lon="1.84551">
        <ele>91</ele>
        <time>2023-01-09T00:58:55Z</time>
      </trkpt>
      <trkpt lat="49.03359" lon="1.84626">
        <ele>88</ele>
        <time>2023-01-09T01:00:01Z</time>
      </trkpt>
      <trkpt lat="49.03344" lon="1.84736">
        <ele>84</ele>
        <time>2023-01-09T01:01:39Z</time>
      </trkpt>
      <trkpt lat="49.03346" lon="1.84882">
        <ele>85</ele>
        <time>2023-01-09T01:03:47Z</time>
      </trkpt>
      <trkpt lat="49.03342" lon="1.84939">
        <ele>86</ele>
        <time>2023-01-09T01:04:37Z</time>
      </trkpt>
      <trkpt lat="49.03346" lon="1.84969">
        <ele>85</ele>
        <time>2023-01-09T01:05:04Z</time>
      </trkpt>
      <trkpt lat="49.03346" lon="1.85021">
        <ele>85</ele>
        <time>2023-01-09T01:05:49Z</time>
      </trkpt>
      <trkpt lat="49.03341" lon="1.85085">
        <ele>85</ele>
        <time>2023-01-09T01:06:46Z</time>
      </trkpt>
      <trkpt lat="49.03315" lon="1.8515">
        <ele>84</ele>
        <time>2023-01-09T01:07:52Z</time>
      </trkpt>
      <trkpt lat="49.03309" lon="1.85211">
        <ele>84</ele>
        <time>2023-01-09T01:08:46Z</time>
      </trkpt>
      <trkpt lat="49.03286" lon="1.85353">
        <ele>84</ele>
        <time>2023-01-09T01:10:54Z</time>
      </trkpt>
      <trkpt lat="49.0325" lon="1.85488">
        <ele>83</ele>
        <time>2023-01-09T01:13:02Z</time>
      </trkpt>
      <trkpt lat="49.03232" lon="1.85685">
        <ele>81</ele>
        <time>2023-01-09T01:15:56Z</time>
      </trkpt>
      <trkpt lat="49.03236" lon="1.85708">
        <ele>81</ele>
        <time>2023-01-09T01:16:17Z</time>
      </trkpt>
      <trkpt lat="49.03235" lon="1.85803">
        <ele>80</ele>
        <time>2023-01-09T01:17:40Z</time>
      </trkpt>
      <trkpt lat="49.03242" lon="1.85869">
        <ele>80</ele>
        <time>2023-01-09T01:18:38Z</time>
      </trkpt>
      <trkpt lat="49.03234" lon="1.85924">
        <ele>79</ele>
        <time>2023-01-09T01:19:28Z</time>
      </trkpt>
      <trkpt lat="49.03232" lon="1.86009">
        <ele>76</ele>
        <time>2023-01-09T01:20:42Z</time>
      </trkpt>
      <trkpt lat="49.03209" lon="1.86134">
        <ele>70</ele>
        <time>2023-01-09T01:22:36Z</time>
      </trkpt>
      <trkpt lat="49.032" lon="1.86242">
        <ele>66</ele>
        <time>2023-01-09T01:24:11Z</time>
      </trkpt>
      <trkpt lat="49.03205" lon="1.86298">
        <ele>64</ele>
        <time>2023-01-09T01:25:00Z</time>
      </trkpt>
      <trkpt lat="49.0324" lon="1.86378">
        <ele>62</ele>
        <time>2023-01-09T01:26:25Z</time>
      </trkpt>
      <trkpt lat="49.03288" lon="1.86454">
        <ele>56</ele>
        <time>2023-01-09T01:27:57Z</time>
      </trkpt>
      <trkpt lat="49.03334" lon="1.86494">
        <ele>50</ele>
        <time>2023-01-09T01:29:08Z</time>
      </trkpt>
      <trkpt lat="49.03386" lon="1.86519">
        <ele>42</ele>
        <time>2023-01-09T01:30:20Z</time>
      </trkpt>
      <trkpt lat="49.03429" lon="1.86547">
        <ele>38</ele>
        <time>2023-01-09T01:31:23Z</time>
      </trkpt>
      <trkpt lat="49.03446" lon="1.86563">
        <ele>39</ele>
        <time>2023-01-09T01:31:49Z</time>
      </trkpt>
      <trkpt lat="49.03456" lon="1.86565">
        <ele>39</ele>
        <time>2023-01-09T01:32:03Z</time>
      </trkpt>
      <trkpt lat="49.03475" lon="1.86555">
        <ele>39</ele>
        <time>2023-01-09T01:32:30Z</time>
      </trkpt>
      <trkpt lat="49.03482" lon="1.86543">
        <ele>39</ele>
        <time>2023-01-09T01:32:44Z</time>
      </trkpt>
      <trkpt lat="49.03488" lon="1.86479">
        <ele>38</ele>
        <time>2023-01-09T01:33:40Z</time>
      </trkpt>
      <trkpt lat="49.03482" lon="1.86461">
        <ele>39</ele>
        <time>2023-01-09T01:33:58Z</time>
      </trkpt>
    </trkseg>
  </trk>
</gpx>